Time;durP1;ratioP1;P1;durP2;ratioP2;P2;SDS_P1;SDS_P2;PMS_P1;PMS_P2;Temp;Humidity;BMP_temperature;BMP_pressure;BME280_temperature;BME280_humidity;BME280_pressure;Samples;Min_cycle;Max_cycle;Signal;HPM_P1;HPM_P2
2021/03/17 00:02:13;;;;;;;1.90;1.20;;;;;;;1.25;99.25;98174.84;1705270;84;21163;-55
2021/03/17 00:05:01;;;;;;;1.85;1.40;;;;;;;1.26;98.99;98186.16;1705146;84;21168;-57
2021/03/17 00:07:47;;;;;;;1.87;1.37;;;;;;;1.21;98.80;98183.14;1705159;84;21037;-55
2021/03/17 00:10:38;;;;;;;2.17;1.50;;;;;;;1.18;98.89;98177.70;1701823;84;21114;-58
2021/03/17 00:13:26;;;;;;;3.20;1.75;;;;;;;1.17;98.96;98182.59;1697441;84;21389;-57
2021/03/17 00:16:12;;;;;;;2.05;1.47;;;;;;;1.21;99.08;98181.34;1697273;84;21153;-55
2021/03/17 00:18:58;;;;;;;1.60;1.22;;;;;;;1.25;99.03;98172.73;1697409;84;21100;-54
2021/03/17 00:21:44;;;;;;;1.60;1.10;;;;;;;1.25;98.85;98176.66;1669376;86;20918;-57
2021/03/17 00:24:30;;;;;;;1.75;1.60;;;;;;;1.22;98.82;98173.02;1669229;86;21153;-55
2021/03/17 00:27:16;;;;;;;2.98;2.08;;;;;;;1.19;98.85;98174.13;1669377;86;21217;-54
2021/03/17 00:30:05;;;;;;;1.90;1.70;;;;;;;1.17;98.76;98171.31;1678099;84;21049;-55
2021/03/17 00:32:51;;;;;;;2.15;1.70;;;;;;;1.11;98.85;98172.70;1697421;84;21152;-57
2021/03/17 00:35:38;;;;;;;2.02;1.80;;;;;;;1.09;99.00;98173.81;1697464;84;20954;-55
2021/03/17 00:38:25;;;;;;;3.40;2.37;;;;;;;1.06;99.18;98170.16;1697300;84;21085;-56
2021/03/17 00:41:11;;;;;;;2.95;1.90;;;;;;;1.08;99.39;98170.36;1697446;84;21400;-56
2021/03/17 00:43:57;;;;;;;3.50;2.12;;;;;;;1.12;99.54;98171.71;1697392;84;21093;-54
2021/03/17 00:46:45;;;;;;;2.98;2.00;;;;;;;1.13;99.41;98166.83;1697359;84;21088;-57
2021/03/17 00:49:16;;;;;;;4.33;2.40;;;;;;;1.13;99.39;98158.14;1697309;84;21122;-56
2021/03/17 00:51:43;;;;;;;1.85;1.67;;;;;;;1.14;99.52;98163.73;1719560;83;21093;-55
2021/03/17 00:54:29;;;;;;;4.07;2.53;;;;;;;1.17;99.54;98157.70;1728435;83;21368;-55
2021/03/17 00:56:58;;;;;;;4.25;2.17;;;;;;;1.15;99.34;98153.09;1728540;82;21892;-56
2021/03/17 00:59:26;;;;;;;3.58;2.40;;;;;;;1.13;99.24;98157.66;1717931;83;20980;-55
2021/03/17 01:01:53;;;;;;;3.55;2.08;;;;;;;1.12;99.29;98151.27;1697345;84;21095;-55
2021/03/17 01:04:22;;;;;;;2.62;1.80;;;;;;;1.11;99.32;98151.75;1697306;84;21201;-55
2021/03/17 01:06:50;;;;;;;2.52;2.08;;;;;;;1.10;99.35;98146.63;1697320;84;21382;-56
2021/03/17 01:09:17;;;;;;;1.87;1.60;;;;;;;1.11;99.40;98150.44;1697123;83;21121;-56
2021/03/17 01:11:46;;;;;;;3.02;1.45;;;;;;;1.15;99.41;98140.48;1703183;84;21500;-56
2021/03/17 01:14:13;;;;;;;1.82;1.70;;;;;;;1.14;99.31;98144.91;1705077;84;21117;-56
2021/03/17 01:16:41;;;;;;;1.65;1.55;;;;;;;1.16;99.41;98142.97;1704968;84;20978;-55
2021/03/17 01:19:11;;;;;;;1.57;1.47;;;;;;;1.18;99.31;98142.34;1705024;82;21438;-55
2021/03/17 01:21:40;;;;;;;1.75;1.62;;;;;;;1.17;99.15;98143.29;1676705;85;21018;-54
2021/03/17 01:24:08;;;;;;;1.60;1.50;;;;;;;1.15;99.07;98136.07;1676729;85;21088;-56
2021/03/17 01:26:36;;;;;;;1.90;1.80;;;;;;;1.12;99.01;98140.28;1676723;85;21116;-54
2021/03/17 01:29:04;;;;;;;2.50;1.82;;;;;;;1.09;99.11;98139.28;1677050;84;21083;-56
2021/03/17 01:31:31;;;;;;;1.50;1.40;;;;;;;1.10;99.19;98146.16;1703401;84;22392;-56
2021/03/17 01:33:58;;;;;;;1.70;1.60;;;;;;;1.11;99.25;98141.75;1705029;84;21081;-56
2021/03/17 01:36:26;;;;;;;1.35;1.25;;;;;;;1.12;99.26;98144.72;1705128;84;21067;-57
2021/03/17 01:38:53;;;;;;;1.42;1.30;;;;;;;1.13;99.29;98145.88;1704997;84;20970;-56
2021/03/17 01:41:21;;;;;;;1.60;1.50;;;;;;;1.12;99.13;98148.65;1705056;84;21172;-56
2021/03/17 01:43:49;;;;;;;1.87;1.77;;;;;;;1.10;99.18;98144.84;1705082;82;21386;-56
2021/03/17 01:46:16;;;;;;;1.70;1.60;;;;;;;1.08;99.30;98140.23;1705012;84;21101;-56
2021/03/17 01:48:45;;;;;;;1.57;1.47;;;;;;;1.08;99.26;98138.93;1705096;84;20955;-56
2021/03/17 01:51:12;;;;;;;1.57;1.47;;;;;;;1.05;99.25;98143.62;1705014;83;21149;-56
2021/03/17 01:53:40;;;;;;;1.25;1.25;;;;;;;1.03;99.26;98139.84;1705000;84;21136;-56
2021/03/17 01:56:08;;;;;;;3.75;1.27;;;;;;;1.02;99.37;98138.19;1675404;84;21559;-56
2021/03/17 01:58:37;;;;;;;1.25;1.20;;;;;;;1.03;99.39;98139.84;1705029;83;21117;-55
2021/03/17 02:01:04;;;;;;;1.50;1.40;;;;;;;1.05;99.32;98149.69;1704977;84;21069;-56
2021/03/17 02:03:33;;;;;;;1.10;1.00;;;;;;;1.07;99.36;98151.67;1705072;83;21587;-56
2021/03/17 02:06:00;;;;;;;0.98;0.98;;;;;;;1.10;99.35;98146.16;1705095;83;21123;-56
2021/03/17 02:08:33;;;;;;;1.50;1.40;;;;;;;1.10;99.25;98140.91;1705149;83;21376;-55
2021/03/17 02:11:01;;;;;;;1.70;1.60;;;;;;;1.11;99.22;98143.05;1702445;84;21160;-55
2021/03/17 02:14:07;;;;;;;1.27;1.17;;;;;;;1.09;99.10;98138.45;1697708;83;21176;-55
2021/03/17 02:17:00;;;;;;;1.30;1.15;;;;;;;1.07;99.00;98136.47;1705622;83;21224;-55
2021/03/17 02:20:08;;;;;;;1.27;1.17;;;;;;;1.06;99.23;98133.49;1710247;83;21201;-54
2021/03/17 02:22:47;;;;;;;1.20;1.10;;;;;;;1.07;99.23;98134.64;1700887;83;21334;-56
2021/03/17 02:25:32;;;;;;;1.10;1.10;;;;;;;1.10;99.30;98140.08;1697288;84;20967;-55
2021/03/17 02:28:25;;;;;;;1.17;1.17;;;;;;;1.09;99.15;98134.52;1697399;84;21070;-55
2021/03/17 02:31:24;;;;;;;1.40;1.30;;;;;;;1.08;99.05;98137.62;1696992;84;21204;-55
2021/03/17 02:34:08;;;;;;;0.82;0.82;;;;;;;1.05;99.22;98139.21;1697375;84;21155;-55
2021/03/17 02:36:48;;;;;;;1.30;1.20;;;;;;;1.05;99.22;98151.00;1697460;84;21543;-56
2021/03/17 02:39:28;;;;;;;1.20;1.15;;;;;;;1.01;99.33;98143.58;1697434;84;21132;-54
2021/03/17 02:42:21;;;;;;;1.30;1.20;;;;;;;0.99;99.26;98145.01;1697516;84;20975;-55
2021/03/17 02:44:52;;;;;;;1.00;1.00;;;;;;;0.99;99.37;98145.01;1697392;84;21121;-54
2021/03/17 02:47:20;;;;;;;0.90;0.90;;;;;;;1.00;99.52;98139.30;1697065;84;21643;-58
2021/03/17 02:49:48;;;;;;;1.00;0.98;;;;;;;0.99;99.42;98141.08;1697400;84;21338;-55
2021/03/17 02:52:16;;;;;;;0.82;0.82;;;;;;;0.99;99.52;98127.98;1697239;84;21101;-56
2021/03/17 02:54:45;;;;;;;0.70;0.70;;;;;;;1.01;99.52;98136.55;1697324;83;20971;-56
2021/03/17 02:57:18;;;;;;;0.85;0.85;;;;;;;1.01;99.45;98137.86;1675577;84;21144;-55
2021/03/17 02:59:51;;;;;;;1.00;1.00;;;;;;;1.00;99.49;98145.84;1697447;84;21061;-55
2021/03/17 03:02:19;;;;;;;1.10;1.10;;;;;;;0.99;99.50;98145.52;1697456;84;21940;-55
2021/03/17 03:04:50;;;;;;;1.35;1.25;;;;;;;1.00;99.66;98142.75;1697218;83;21239;-55
2021/03/17 03:07:23;;;;;;;1.20;1.20;;;;;;;1.03;99.58;98141.16;1697437;84;21010;-55
2021/03/17 03:09:52;;;;;;;1.10;1.10;;;;;;;1.03;99.45;98143.77;1697391;84;21157;-54
2021/03/17 03:12:19;;;;;;;0.98;0.90;;;;;;;1.01;99.33;98147.03;1703019;84;21227;-55
2021/03/17 03:14:46;;;;;;;1.25;1.15;;;;;;;1.00;99.38;98149.30;1705111;84;21540;-55
2021/03/17 03:17:15;;;;;;;1.30;1.20;;;;;;;1.01;99.46;98154.88;1705094;84;21104;-55
2021/03/17 03:19:48;;;;;;;1.02;1.02;;;;;;;1.04;99.53;98148.02;1705185;84;20966;-55
2021/03/17 03:22:15;;;;;;;1.05;1.05;;;;;;;1.08;99.37;98148.58;1705203;84;21065;-55
2021/03/17 03:24:43;;;;;;;1.35;1.25;;;;;;;1.10;99.34;98146.16;1705090;84;21184;-56
2021/03/17 03:27:12;;;;;;;1.30;1.20;;;;;;;1.10;99.18;98147.46;1704768;84;21382;-56
2021/03/17 03:29:39;;;;;;;1.40;1.30;;;;;;;1.09;99.06;98149.77;1675483;84;21195;-56
2021/03/17 03:32:08;;;;;;;1.42;1.32;;;;;;;1.06;99.02;98153.97;1705133;84;21077;-55
2021/03/17 03:34:37;;;;;;;1.22;1.12;;;;;;;1.07;99.05;98145.12;1705222;84;21088;-56
2021/03/17 03:37:05;;;;;;;1.17;1.17;;;;;;;1.07;99.04;98147.75;1705048;84;21077;-55
2021/03/17 03:39:34;;;;;;;0.95;0.95;;;;;;;1.08;99.10;98143.34;1705194;83;21436;-55
2021/03/17 03:42:01;;;;;;;1.72;1.02;;;;;;;1.10;99.06;98142.23;1705125;83;21578;-56
2021/03/17 03:44:29;;;;;;;1.05;1.05;;;;;;;1.12;98.99;98148.14;1705149;84;21208;-55
2021/03/17 03:46:57;;;;;;;0.93;0.93;;;;;;;1.13;98.81;98152.42;1705075;83;20954;-56
2021/03/17 03:49:25;;;;;;;0.95;0.95;;;;;;;1.14;98.91;98154.56;1705328;83;21081;-55
2021/03/17 03:52:07;;;;;;;1.17;1.12;;;;;;;1.18;98.85;98150.67;1705151;84;21402;-55
2021/03/17 03:54:50;;;;;;;1.20;1.10;;;;;;;1.17;98.71;98143.29;1701874;84;20990;-56
2021/03/17 03:57:24;;;;;;;1.67;1.57;;;;;;;1.14;98.56;98142.77;1704847;84;21100;-56
2021/03/17 03:59:55;;;;;;;1.55;1.45;;;;;;;1.12;98.67;98145.52;1705179;84;21203;-55
2021/03/17 04:02:26;;;;;;;1.27;1.20;;;;;;;1.12;98.67;98143.41;1705218;84;21027;-56
2021/03/17 04:04:55;;;;;;;1.25;1.15;;;;;;;1.11;98.53;98146.51;1705147;84;21376;-55
2021/03/17 04:07:23;;;;;;;1.35;1.25;;;;;;;1.09;98.50;98148.93;1675147;84;21204;-56
2021/03/17 04:09:53;;;;;;;1.30;1.20;;;;;;;1.06;98.60;98140.87;1643182;87;21066;-56
2021/03/17 04:12:22;;;;;;;1.12;1.12;;;;;;;1.07;98.70;98143.81;1663432;85;21173;-56
2021/03/17 04:14:53;;;;;;;0.90;0.90;;;;;;;1.08;98.66;98141.55;1685929;84;21181;-55
2021/03/17 04:17:27;;;;;;;1.40;1.30;;;;;;;1.08;98.69;98138.93;1697117;84;21503;-55
2021/03/17 04:20:00;;;;;;;1.32;1.22;;;;;;;1.08;98.64;98140.72;1676138;84;21592;-57
2021/03/17 04:22:28;;;;;;;0.95;0.93;;;;;;;1.05;98.45;98149.69;1697301;84;21498;-56
2021/03/17 04:24:59;;;;;;;0.98;0.98;;;;;;;1.01;98.54;98146.20;1697299;84;20957;-57
2021/03/17 04:27:27;;;;;;;1.30;1.20;;;;;;;0.97;98.62;98148.74;1694536;84;21215;-55
2021/03/17 04:29:55;;;;;;;1.37;1.30;;;;;;;0.95;98.77;98151.52;1694841;84;21403;-54
2021/03/17 04:32:23;;;;;;;0.85;0.85;;;;;;;0.97;99.00;98146.95;1694762;84;21098;-55
2021/03/17 04:34:51;;;;;;;1.10;1.10;;;;;;;1.02;99.06;98151.75;1694801;84;21124;-55
2021/03/17 04:37:18;;;;;;;1.00;1.00;;;;;;;1.05;99.03;98152.30;1694749;84;21185;-54
2021/03/17 04:39:48;;;;;;;1.00;1.00;;;;;;;1.09;98.93;98152.86;1694755;84;20967;-56
2021/03/17 04:42:16;;;;;;;1.00;0.90;;;;;;;1.10;98.86;98150.08;1694831;84;22216;-56
2021/03/17 04:44:44;;;;;;;0.93;0.93;;;;;;;1.11;98.86;98148.30;1694734;84;21118;-55
2021/03/17 04:47:13;;;;;;;1.25;1.10;;;;;;;1.10;98.62;98149.25;1693786;84;21042;-55
2021/03/17 04:49:44;;;;;;;1.40;1.30;;;;;;;1.08;98.55;98153.81;1694744;84;21153;-56
2021/03/17 04:52:13;;;;;;;1.35;1.20;;;;;;;1.04;98.61;98154.57;1693954;84;20979;-56
2021/03/17 04:54:41;;;;;;;0.93;0.93;;;;;;;1.04;98.69;98160.32;1694557;84;21359;-56
2021/03/17 04:57:19;;;;;;;0.80;0.80;;;;;;;1.04;98.70;98160.32;1695638;84;21228;-55
2021/03/17 04:59:47;;;;;;;0.78;0.78;;;;;;;1.04;98.72;98161.12;1694368;84;21073;-56
2021/03/17 05:02:18;;;;;;;0.65;0.65;;;;;;;1.05;98.63;98154.92;1694614;84;21086;-56
2021/03/17 05:04:46;;;;;;;0.60;0.60;;;;;;;1.04;98.64;98142.78;1653094;84;21073;-57
2021/03/17 05:07:13;;;;;;;0.80;0.80;;;;;;;1.03;98.50;98150.32;1694689;84;21276;-57
2021/03/17 05:09:43;;;;;;;0.75;0.75;;;;;;;1.02;98.59;98153.90;1694520;84;21041;-56
2021/03/17 05:12:13;;;;;;;0.80;0.80;;;;;;;1.04;98.66;98156.39;1694302;84;21610;-56
2021/03/17 05:14:41;;;;;;;1.50;1.37;;;;;;;1.05;98.73;98160.16;1687458;84;21631;-57
2021/03/17 05:17:09;;;;;;;1.00;1.00;;;;;;;1.07;98.78;98158.22;1678171;84;21196;-56
2021/03/17 05:19:38;;;;;;;0.68;0.68;;;;;;;1.10;98.62;98162.34;1675558;85;21381;-57
2021/03/17 05:22:05;;;;;;;0.80;0.80;;;;;;;1.10;98.68;98161.04;1676444;85;21100;-56
2021/03/17 05:24:33;;;;;;;2.42;1.42;;;;;;;1.10;98.58;98160.56;1671859;85;21169;-59
2021/03/17 05:27:05;;;;;;;0.95;0.95;;;;;;;1.11;98.57;98159.60;1669970;85;21077;-55
2021/03/17 05:29:32;;;;;;;1.32;1.10;;;;;;;1.12;98.51;98160.44;1668401;85;21282;-57
2021/03/17 05:32:00;;;;;;;0.78;0.72;;;;;;;1.12;98.56;98162.55;1642959;87;21472;-56
2021/03/17 05:34:28;;;;;;;1.30;1.20;;;;;;;1.10;98.47;98168.42;1642872;87;21049;-57
2021/03/17 05:36:55;;;;;;;1.20;1.05;;;;;;;1.09;98.49;98173.81;1678614;85;21030;-57
2021/03/17 05:39:23;;;;;;;1.32;1.22;;;;;;;1.07;98.52;98173.94;1645846;87;21240;-57
2021/03/17 05:41:51;;;;;;;1.10;1.00;;;;;;;1.06;98.57;98173.61;1671830;85;21162;-58
2021/03/17 05:44:18;;;;;;;1.07;0.88;;;;;;;1.09;98.64;98186.91;1671851;85;21357;-57
2021/03/17 05:46:46;;;;;;;1.92;1.27;;;;;;;1.12;98.66;98186.12;1671763;85;20966;-57
2021/03/17 05:49:14;;;;;;;1.85;1.40;;;;;;;1.14;98.59;98184.20;1676463;85;21092;-57
2021/03/17 05:51:43;;;;;;;2.35;1.62;;;;;;;1.14;98.52;98179.45;1676313;85;21049;-56
2021/03/17 05:54:11;;;;;;;1.70;1.50;;;;;;;1.14;98.50;98189.45;1676480;85;21149;-54
2021/03/17 05:56:39;;;;;;;1.77;1.60;;;;;;;1.15;98.46;98183.70;1671352;85;21396;-59
2021/03/17 05:59:07;;;;;;;1.42;1.20;;;;;;;1.19;98.57;98179.36;1670273;85;21129;-57
2021/03/17 06:01:34;;;;;;;2.15;1.65;;;;;;;1.21;98.45;98177.42;1654061;85;21089;-64
2021/03/17 06:04:02;;;;;;;2.08;1.40;;;;;;;1.27;98.48;98175.19;1676605;85;21626;-70
2021/03/17 06:06:30;;;;;;;2.72;1.30;;;;;;;1.32;98.25;98182.97;1671233;85;21201;-59
2021/03/17 06:08:59;;;;;;;1.87;1.50;;;;;;;1.34;98.11;98188.05;1671440;84;21429;-58
2021/03/17 06:11:27;;;;;;;1.32;1.07;;;;;;;1.35;97.83;98186.62;1668025;85;21009;-57
2021/03/17 06:13:55;;;;;;;1.37;1.05;;;;;;;1.38;97.79;98186.81;1703484;83;21135;-56
2021/03/17 06:16:23;;;;;;;1.15;1.10;;;;;;;1.39;97.55;98184.52;1700946;83;21175;-58
2021/03/17 06:18:55;;;;;;;0.78;0.72;;;;;;;1.38;97.48;98186.34;1699805;83;20993;-56
2021/03/17 06:21:22;;;;;;;1.20;0.80;;;;;;;1.40;97.38;98188.80;1700700;83;21218;-57
2021/03/17 06:23:55;;;;;;;1.65;1.20;;;;;;;1.39;97.26;98190.59;1699491;83;21170;-57
2021/03/17 06:26:23;;;;;;;1.45;0.90;;;;;;;1.41;97.22;98193.08;1677591;83;21164;-56
2021/03/17 06:28:50;;;;;;;1.20;0.95;;;;;;;1.39;97.10;98191.90;1702183;83;21171;-58
2021/03/17 06:31:20;;;;;;;1.20;0.80;;;;;;;1.41;97.16;98190.46;1704857;83;20977;-56
2021/03/17 06:33:53;;;;;;;1.07;0.95;;;;;;;1.44;97.19;98192.77;1697550;83;21470;-58
2021/03/17 06:36:23;;;;;;;0.72;0.72;;;;;;;1.46;97.02;98191.66;1700631;83;21218;-55
2021/03/17 06:39:09;;;;;;;0.68;0.68;;;;;;;1.46;96.82;98193.48;1698816;83;21178;-56
2021/03/17 06:41:51;;;;;;;0.72;0.70;;;;;;;1.46;96.82;98193.48;1701370;83;21072;-57
2021/03/17 06:44:24;;;;;;;1.05;0.80;;;;;;;1.48;96.82;98190.22;1699922;83;21189;-57
2021/03/17 06:47:18;;;;;;;0.70;0.70;;;;;;;1.47;96.73;98197.73;1702267;83;21376;-56
2021/03/17 06:49:52;;;;;;;1.05;0.60;;;;;;;1.53;96.87;98197.16;1712679;83;21042;-58
2021/03/17 06:52:36;;;;;;;1.00;0.93;;;;;;;1.57;96.70;98198.51;1694078;83;21218;-57
2021/03/17 06:55:10;;;;;;;0.72;0.72;;;;;;;1.63;96.33;98200.56;1703389;83;21011;-58
2021/03/17 06:57:42;;;;;;;0.57;0.57;;;;;;;1.62;96.04;98201.52;1712311;83;21134;-58
2021/03/17 07:00:30;;;;;;;0.60;0.60;;;;;;;1.61;96.02;98199.89;1707971;83;21398;-56
2021/03/17 07:03:12;;;;;;;0.60;0.60;;;;;;;1.61;95.84;98201.20;1695800;84;21106;-60
2021/03/17 07:05:41;;;;;;;0.50;0.50;;;;;;;1.60;95.88;98202.98;1694491;83;21219;-57
2021/03/17 07:08:11;;;;;;;0.55;0.50;;;;;;;1.57;95.76;98195.41;1700972;83;21052;-56
2021/03/17 07:10:45;;;;;;;0.70;0.70;;;;;;;1.57;95.87;98194.09;1691336;83;21669;-55
2021/03/17 07:13:15;;;;;;;0.70;0.42;;;;;;;1.61;95.81;98201.20;1710528;81;21361;-56
2021/03/17 07:15:43;;;;;;;0.60;0.57;;;;;;;1.62;95.61;98198.89;1713934;82;21609;-57
2021/03/17 07:18:23;;;;;;;0.70;0.60;;;;;;;1.62;95.49;98198.89;1673885;83;21230;-57
2021/03/17 07:21:05;;;;;;;3.12;1.65;;;;;;;1.63;95.51;98211.88;1707006;82;21181;-57
2021/03/17 07:23:43;;;;;;;1.05;0.90;;;;;;;1.63;95.40;98209.25;1705421;82;22280;-56
2021/03/17 07:26:23;;;;;;;0.70;0.70;;;;;;;1.66;95.50;98214.22;1702085;82;22224;-57
2021/03/17 07:28:58;;;;;;;1.10;1.00;;;;;;;1.70;95.47;98210.31;1711654;82;21127;-55
2021/03/17 07:31:36;;;;;;;1.42;1.32;;;;;;;1.70;95.37;98204.24;1707693;82;21138;-56
2021/03/17 07:34:19;;;;;;;0.75;0.75;;;;;;;1.73;95.39;98202.64;1706669;82;21163;-56
2021/03/17 07:36:56;;;;;;;1.02;0.93;;;;;;;1.73;95.18;98200.85;1701996;82;21130;-55
2021/03/17 07:39:37;;;;;;;0.62;0.62;;;;;;;1.77;95.25;98204.02;1704715;82;21393;-57
2021/03/17 07:42:10;;;;;;;0.60;0.60;;;;;;;1.79;95.04;98199.45;1705007;82;21230;-56
2021/03/17 07:44:42;;;;;;;1.47;0.90;;;;;;;1.82;94.79;98199.16;1717515;82;21173;-56
2021/03/17 07:47:11;;;;;;;2.27;1.00;;;;;;;1.86;94.77;98186.08;1707763;82;21198;-57
2021/03/17 07:49:43;;;;;;;1.85;0.70;;;;;;;1.90;94.67;98199.27;1689186;82;21201;-58
2021/03/17 07:52:20;;;;;;;0.60;0.60;;;;;;;1.96;94.48;98207.00;1705002;82;22248;-57
2021/03/17 07:54:52;;;;;;;5.05;2.00;;;;;;;1.97;94.39;98208.66;1708508;82;21663;-56
2021/03/17 07:57:23;;;;;;;1.87;1.25;;;;;;;2.00;94.43;98207.06;1708580;82;21621;-57
2021/03/17 07:59:55;;;;;;;0.60;0.60;;;;;;;2.05;94.27;98199.57;1700021;82;22912;-65
2021/03/17 08:02:23;;;;;;;0.50;0.50;;;;;;;2.08;93.85;98201.91;1725324;82;21208;-55
2021/03/17 08:04:51;;;;;;;0.98;0.70;;;;;;;2.10;93.47;98200.78;1705872;82;21632;-57
2021/03/17 08:07:19;;;;;;;0.50;0.50;;;;;;;2.13;93.46;98209.67;1704578;83;21175;-56
2021/03/17 08:09:48;;;;;;;0.50;0.50;;;;;;;2.14;93.10;98207.38;1708003;82;20976;-57
2021/03/17 08:12:16;;;;;;;0.40;0.40;;;;;;;2.16;93.21;98201.52;1720490;82;21142;-55
2021/03/17 08:14:44;;;;;;;0.60;0.60;;;;;;;2.18;92.83;98206.12;1704317;82;21161;-55
2021/03/17 08:17:13;;;;;;;0.40;0.40;;;;;;;2.15;92.76;98205.58;1696349;84;21321;-55
2021/03/17 08:19:42;;;;;;;0.50;0.40;;;;;;;2.16;92.95;98209.38;1694729;82;21331;-56
2021/03/17 08:22:11;;;;;;;0.75;0.40;;;;;;;2.20;92.91;98205.48;1697213;84;21072;-56
2021/03/17 08:24:40;;;;;;;0.57;0.50;;;;;;;2.18;92.55;98205.29;1674515;84;21231;-57
2021/03/17 08:27:17;;;;;;;0.62;0.62;;;;;;;2.18;92.75;98208.74;1702668;84;21088;-56
2021/03/17 08:30:04;;;;;;;1.00;0.90;;;;;;;2.19;92.61;98196.45;1702694;84;22277;-56
2021/03/17 08:32:57;;;;;;;0.70;0.68;;;;;;;2.17;92.45;98214.12;1710303;82;21323;-56
2021/03/17 08:35:59;;;;;;;0.65;0.50;;;;;;;2.15;92.50;98215.59;1704470;82;21162;-56
2021/03/17 08:38:56;;;;;;;0.68;0.60;;;;;;;2.13;92.24;98221.96;1702666;84;21181;-55
2021/03/17 08:41:46;;;;;;;0.57;0.57;;;;;;;2.08;92.39;98222.89;1702843;82;21153;-55
2021/03/17 08:44:16;;;;;;;1.70;0.60;;;;;;;2.05;92.46;98222.70;1702749;82;21296;-56
2021/03/17 08:46:44;;;;;;;0.50;0.50;;;;;;;2.02;92.75;98230.03;1702638;82;21614;-56
2021/03/17 08:49:19;;;;;;;0.90;0.90;;;;;;;1.98;92.78;98224.27;1702676;82;21189;-55
2021/03/17 08:51:53;;;;;;;0.70;0.70;;;;;;;1.97;92.90;98230.48;1695370;82;21181;-56
2021/03/17 08:54:45;;;;;;;0.98;0.90;;;;;;;1.98;92.92;98230.83;1702580;84;21173;-56
2021/03/17 08:57:10;;;;;;;1.32;1.20;;;;;;;1.97;92.90;98225.71;1701711;82;21359;-56
2021/03/17 08:59:55;;;;;;;1.32;1.02;;;;;;;1.97;93.01;98225.71;1702703;82;21524;-54
2021/03/17 09:02:31;;;;;;;0.90;0.90;;;;;;;1.98;92.99;98226.89;1702865;84;21156;-55
2021/03/17 09:05:00;;;;;;;0.95;0.78;;;;;;;1.99;92.98;98229.84;1702693;84;21626;-56
2021/03/17 09:07:33;;;;;;;0.80;0.80;;;;;;;1.97;92.87;98230.48;1699596;82;21151;-55
2021/03/17 09:10:10;;;;;;;0.60;0.60;;;;;;;1.95;92.94;98231.12;1702633;84;21038;-55
2021/03/17 09:12:43;;;;;;;0.60;0.60;;;;;;;1.94;93.00;98224.69;1702776;82;20962;-55
2021/03/17 09:15:15;;;;;;;1.70;0.90;;;;;;;1.96;93.06;98230.13;1673500;84;21250;-56
2021/03/17 09:17:49;;;;;;;1.20;1.00;;;;;;;1.99;93.00;98234.25;1673430;84;21266;-55
2021/03/17 09:20:49;;;;;;;0.80;0.80;;;;;;;2.00;92.98;98228.88;1673281;84;21163;-55
2021/03/17 09:23:25;;;;;;;0.70;0.65;;;;;;;2.02;93.02;98242.66;1673255;84;21388;-55
2021/03/17 09:25:57;;;;;;;0.98;0.80;;;;;;;2.07;92.96;98233.87;1673311;85;21614;-55
2021/03/17 09:28:37;;;;;;;0.82;0.70;;;;;;;2.13;92.82;98231.15;1674381;84;21577;-55
2021/03/17 09:31:09;;;;;;;1.17;1.02;;;;;;;2.15;92.40;98231.34;1673351;84;21192;-55
2021/03/17 09:33:41;;;;;;;0.82;0.82;;;;;;;2.17;92.44;98237.25;1673452;84;21631;-55
2021/03/17 09:36:19;;;;;;;0.90;0.90;;;;;;;2.22;92.44;98236.33;1673440;84;21717;-56
2021/03/17 09:38:50;;;;;;;0.90;0.90;;;;;;;2.29;92.25;98239.20;1673387;84;21016;-56
2021/03/17 09:41:23;;;;;;;1.20;1.00;;;;;;;2.34;92.10;98236.47;1673370;85;21147;-56
2021/03/17 09:44:04;;;;;;;1.60;1.40;;;;;;;2.38;91.93;98237.81;1658401;84;37820;-56
2021/03/17 09:46:43;;;;;;;0.98;0.93;;;;;;;2.44;91.79;98238.53;1673424;84;21222;-56
2021/03/17 09:49:14;;;;;;;0.95;0.93;;;;;;;2.53;91.23;98241.24;1673391;84;21351;-56
2021/03/17 09:51:44;;;;;;;1.40;1.12;;;;;;;2.57;91.02;98235.53;1673369;85;21139;-56
2021/03/17 09:54:13;;;;;;;0.72;0.72;;;;;;;2.62;90.73;98237.70;1673416;84;21199;-56
2021/03/17 09:56:49;;;;;;;1.25;1.15;;;;;;;2.69;90.60;98246.63;1673389;84;21028;-56
2021/03/17 09:59:24;;;;;;;0.90;0.90;;;;;;;2.71;90.01;98246.80;1673389;85;21672;-55
2021/03/17 10:01:59;;;;;;;1.12;1.02;;;;;;;2.68;89.52;98245.82;1672495;84;21447;-54
2021/03/17 10:04:45;;;;;;;1.30;1.07;;;;;;;2.62;89.59;98246.89;1657826;85;21091;-54
2021/03/17 10:07:20;;;;;;;1.20;0.90;;;;;;;2.60;89.74;98248.37;1673361;85;21179;-57
2021/03/17 10:09:49;;;;;;;1.00;1.00;;;;;;;2.59;89.76;98248.02;1673437;85;21190;-58
2021/03/17 10:12:19;;;;;;;0.72;0.72;;;;;;;2.61;89.91;98254.45;1674309;84;21160;-56
2021/03/17 10:14:59;;;;;;;0.95;0.85;;;;;;;2.63;89.95;98253.80;1680976;84;21295;-57
2021/03/17 10:17:30;;;;;;;1.02;0.93;;;;;;;2.64;89.97;98256.27;1708187;84;21097;-56
2021/03/17 10:20:12;;;;;;;0.70;0.70;;;;;;;2.68;89.65;98247.62;1708184;84;20990;-56
2021/03/17 10:22:40;;;;;;;2.15;1.77;;;;;;;2.67;89.51;98261.70;1708275;84;21267;-57
2021/03/17 10:25:19;;;;;;;1.12;1.02;;;;;;;2.66;89.54;98254.83;1709106;83;21087;-54
2021/03/17 10:27:50;;;;;;;1.55;0.90;;;;;;;2.65;89.53;98261.04;1710232;83;21210;-55
2021/03/17 10:30:37;;;;;;;0.88;0.80;;;;;;;2.64;89.59;98260.69;1708121;84;21150;-55
2021/03/17 10:33:11;;;;;;;1.05;1.00;;;;;;;2.62;89.71;98262.17;1708300;84;28756;-55
2021/03/17 10:35:39;;;;;;;1.02;0.90;;;;;;;2.60;89.68;98261.98;1708140;84;21144;-54
2021/03/17 10:38:07;;;;;;;1.10;0.98;;;;;;;2.58;89.82;98265.25;1708148;84;21163;-54
2021/03/17 10:40:36;;;;;;;0.80;0.78;;;;;;;2.58;89.93;98265.25;1708197;84;21391;-54
2021/03/17 10:43:10;;;;;;;0.82;0.82;;;;;;;2.59;89.96;98265.56;1708117;84;21184;-54
2021/03/17 10:45:53;;;;;;;0.72;0.72;;;;;;;2.62;90.11;98266.59;1708215;84;21151;-56
2021/03/17 10:48:25;;;;;;;0.90;0.75;;;;;;;2.64;90.09;98268.56;1708305;84;21598;-54
2021/03/17 10:50:53;;;;;;;0.78;0.78;;;;;;;2.63;89.93;98259.89;1708336;84;21137;-55
2021/03/17 10:53:23;;;;;;;1.32;1.00;;;;;;;2.60;90.08;98268.06;1709068;83;22137;-54
2021/03/17 10:55:55;;;;;;;1.37;1.27;;;;;;;2.57;90.27;98266.21;1711691;83;21200;-54
2021/03/17 10:58:28;;;;;;;4.17;3.00;;;;;;;2.57;90.27;98268.84;1709727;84;21163;-54
2021/03/17 11:00:59;;;;;;;1.50;1.40;;;;;;;2.56;90.16;98262.75;1710566;83;21226;-54
2021/03/17 11:03:29;;;;;;;3.08;1.80;;;;;;;2.51;90.28;98262.38;1709824;83;21586;-56
2021/03/17 11:06:20;;;;;;;1.98;1.65;;;;;;;2.49;90.39;98276.98;1713230;83;22374;-57
2021/03/17 11:09:06;;;;;;;1.12;1.10;;;;;;;2.54;90.49;98273.06;1711185;83;21180;-55
2021/03/17 11:11:51;;;;;;;1.22;1.12;;;;;;;2.53;90.32;98271.44;1707087;83;21069;-54
2021/03/17 11:14:36;;;;;;;2.25;1.45;;;;;;;2.50;90.44;98276.50;1705277;83;21177;-55
2021/03/17 11:17:06;;;;;;;3.15;2.83;;;;;;;2.51;90.52;98270.25;1697701;83;21208;-54
2021/03/17 11:19:36;;;;;;;3.77;3.27;;;;;;;2.54;90.43;98277.00;1697362;83;21125;-54
2021/03/17 11:22:03;;;;;;;3.47;3.00;;;;;;;2.54;90.45;98274.38;1699927;83;21622;-54
2021/03/17 11:24:31;;;;;;;2.50;2.30;;;;;;;2.53;90.54;98277.48;1698452;83;21188;-54
2021/03/17 11:26:58;;;;;;;3.98;2.60;;;;;;;2.56;90.43;98270.63;1695383;82;21113;-57
2021/03/17 11:29:29;;;;;;;2.27;1.57;;;;;;;2.56;90.28;98274.56;1670918;84;21137;-55
2021/03/17 11:32:07;;;;;;;1.12;1.00;;;;;;;2.54;90.28;98266.50;1699006;83;21453;-56
2021/03/17 11:34:35;;;;;;;2.02;1.10;;;;;;;2.53;90.35;98259.62;1697464;83;20963;-54
2021/03/17 11:37:03;;;;;;;0.72;0.72;;;;;;;2.56;90.21;98264.06;1700312;83;21135;-55
2021/03/17 11:39:32;;;;;;;1.30;1.20;;;;;;;2.56;90.04;98268.48;1699792;83;20994;-56
2021/03/17 11:42:00;;;;;;;1.30;1.10;;;;;;;2.55;90.11;98262.44;1701699;83;21213;-55
2021/03/17 11:44:28;;;;;;;0.60;0.60;;;;;;;2.56;90.15;98254.05;1699053;82;21980;-56
2021/03/17 11:46:55;;;;;;;1.80;1.70;;;;;;;2.57;90.01;98256.54;1698340;83;21169;-55
2021/03/17 11:49:24;;;;;;;3.37;1.77;;;;;;;2.57;89.99;98263.10;1693011;83;21062;-56
2021/03/17 11:51:52;;;;;;;1.67;1.57;;;;;;;2.57;90.11;98264.89;1697010;82;21183;-55
2021/03/17 11:54:21;;;;;;;1.82;1.72;;;;;;;2.58;90.11;98264.77;1697517;83;21180;-54
2021/03/17 11:56:49;;;;;;;1.20;1.00;;;;;;;2.59;90.19;98266.88;1697209;83;21222;-54
2021/03/17 11:59:16;;;;;;;1.27;1.20;;;;;;;2.57;90.22;98272.30;1689802;83;21207;-55
2021/03/17 12:01:46;;;;;;;1.40;1.30;;;;;;;2.56;90.22;98266.69;1700008;83;21172;-54
2021/03/17 12:04:14;;;;;;;0.80;0.80;;;;;;;2.53;90.36;98270.13;1702207;83;21202;-55
2021/03/17 12:06:42;;;;;;;0.75;0.75;;;;;;;2.57;90.38;98276.23;1698893;83;21571;-55
2021/03/17 12:09:10;;;;;;;0.60;0.60;;;;;;;2.57;90.45;98279.34;1700037;83;21214;-55
2021/03/17 12:11:41;;;;;;;0.55;0.55;;;;;;;2.59;90.33;98274.76;1697787;83;21201;-55